Time;durP1;ratioP1;P1;durP2;ratioP2;P2;SDS_P1;SDS_P2;PMS_P1;PMS_P2;Temp;Humidity;BMP_temperature;BMP_pressure;BME280_temperature;BME280_humidity;BME280_pressure;Samples;Min_cycle;Max_cycle;Signal;HPM_P1;HPM_P2
2021/05/30 00:01:22;;;;;;;5.23;4.83;;;9.40;99.90;;;10.34;74.60;98681.19;5218859;28;20218;-83
2021/05/30 00:03:56;;;;;;;5.27;4.87;;;9.40;99.90;;;10.25;73.75;98675.38;5227068;28;20189;-82
2021/05/30 00:06:29;;;;;;;5.73;5.20;;;9.30;99.90;;;10.21;75.38;98675.06;5231156;28;20195;-83
2021/05/30 00:09:05;;;;;;;5.83;5.43;;;9.30;99.90;;;10.19;75.30;98674.03;5221204;28;20261;-82
2021/05/30 00:11:39;;;;;;;5.70;5.30;;;9.40;99.90;;;10.19;75.36;98681.72;5215575;28;20221;-84
2021/05/30 00:14:21;;;;;;;5.93;5.43;;;9.40;99.90;;;10.14;75.35;98678.84;5217048;28;20205;-84
2021/05/30 00:16:54;;;;;;;6.00;5.50;;;9.30;99.90;;;10.11;75.20;98683.72;5213188;28;20708;-81
2021/05/30 00:19:27;;;;;;;5.97;5.47;;;9.30;99.90;;;10.11;75.37;98676.06;5221728;28;20494;-81
2021/05/30 00:22:01;;;;;;;5.70;5.10;;;9.30;99.90;;;10.08;74.87;98675.84;5215747;28;20217;-81
2021/05/30 00:24:34;;;;;;;5.57;5.20;;;9.20;99.90;;;9.99;75.11;98676.06;5226221;28;20190;-83
2021/05/30 00:27:08;;;;;;;5.67;5.10;;;9.10;99.90;;;9.98;74.60;98673.41;5212287;28;20248;-83
2021/05/30 00:29:41;;;;;;;5.47;5.03;;;9.10;99.90;;;9.99;74.54;98670.09;5222164;28;20664;-82
2021/05/30 00:32:15;;;;;;;5.77;5.37;;;9.00;99.90;;;9.92;74.46;98668.72;5221003;28;20259;-83
2021/05/30 00:34:48;;;;;;;5.83;5.43;;;9.00;99.90;;;9.83;74.47;98668.94;5217258;28;20236;-83
2021/05/30 00:37:21;;;;;;;5.60;5.10;;;8.90;99.90;;;9.78;76.00;98664.28;5227509;28;20284;-82
2021/05/30 00:39:54;;;;;;;6.03;5.53;;;9.00;99.90;;;9.76;75.02;98671.84;5212149;28;20218;-83
2021/05/30 00:42:28;;;;;;;5.20;4.73;;;8.90;99.90;;;9.76;75.56;98666.75;5215208;28;20308;-82
2021/05/30 00:45:01;;;;;;;5.57;5.20;;;8.90;99.90;;;9.76;75.74;98673.50;5219982;28;20256;-83
2021/05/30 00:47:35;;;;;;;5.40;5.10;;;8.90;99.90;;;9.67;75.50;98673.69;5220046;28;20226;-84
2021/05/30 00:50:10;;;;;;;5.07;4.70;;;8.80;99.90;;;9.66;76.76;98669.38;5219905;28;20209;-83
2021/05/30 00:52:44;;;;;;;5.60;5.20;;;8.80;99.90;;;9.66;75.62;98667.72;5226021;28;20245;-81
2021/05/30 00:55:18;;;;;;;6.13;5.73;;;8.80;99.90;;;9.64;76.09;98671.84;5222430;28;20503;-82
2021/05/30 00:57:53;;;;;;;5.80;5.40;;;8.70;99.90;;;9.58;76.08;98683.25;5217308;28;20229;-82
2021/05/30 01:00:28;;;;;;;6.43;5.80;;;8.70;99.90;;;9.60;77.51;98674.03;5216629;28;20240;-82
2021/05/30 01:03:02;;;;;;;5.80;5.30;;;8.80;99.90;;;9.59;76.87;98675.72;5221060;28;20216;-82
2021/05/30 01:05:35;;;;;;;6.10;5.50;;;8.80;99.90;;;9.58;77.48;98685.78;5215978;28;20194;-81
2021/05/30 01:08:10;;;;;;;5.60;5.20;;;8.80;99.90;;;9.56;77.22;98682.25;5217020;28;20218;-82
2021/05/30 01:10:46;;;;;;;5.47;5.07;;;8.80;99.90;;;9.50;76.34;98686.88;5224242;28;20620;-83
2021/05/30 01:13:21;;;;;;;5.87;5.47;;;8.60;99.90;;;9.51;76.70;98681.03;5223291;28;20182;-82
2021/05/30 01:15:54;;;;;;;5.83;5.33;;;8.70;99.90;;;9.47;76.81;98687.53;5212510;28;20190;-83
2021/05/30 01:18:27;;;;;;;6.50;6.07;;;8.60;99.90;;;9.43;76.48;98686.44;5211787;28;20213;-81
2021/05/30 01:21:00;;;;;;;6.33;5.77;;;8.60;99.90;;;9.36;76.41;98683.34;5229191;28;20204;-82
2021/05/30 01:23:34;;;;;;;6.10;5.70;;;8.50;99.90;;;9.37;76.41;98691.09;5211509;28;20645;-83
2021/05/30 01:26:07;;;;;;;6.20;5.70;;;8.50;99.90;;;9.34;76.34;98687.41;5215395;28;20220;-83
2021/05/30 01:28:40;;;;;;;6.37;5.77;;;8.40;99.90;;;9.30;76.61;98683.75;5216324;28;20225;-81
2021/05/30 01:31:13;;;;;;;6.47;5.97;;;8.40;99.90;;;9.27;77.13;98687.72;5223391;28;20219;-82
2021/05/30 01:33:45;;;;;;;5.93;5.43;;;8.50;99.90;;;9.20;76.60;98683.81;5234881;28;20189;-81
2021/05/30 01:36:18;;;;;;;6.03;5.53;;;8.30;99.90;;;9.14;77.48;98691.00;5216030;28;20282;-83
2021/05/30 01:38:51;;;;;;;6.40;5.90;;;8.30;99.90;;;9.12;76.78;98688.34;5216846;28;20677;-82
2021/05/30 01:41:24;;;;;;;6.23;5.80;;;8.30;99.90;;;9.14;77.64;98691.00;5217760;28;20334;-83
2021/05/30 01:43:57;;;;;;;6.53;6.03;;;8.30;99.90;;;9.15;77.66;98688.56;5221770;28;20209;-83
2021/05/30 01:46:30;;;;;;;6.73;6.23;;;8.30;99.90;;;9.10;78.26;98700.09;5223713;28;20224;-83
2021/05/30 01:49:04;;;;;;;6.67;6.17;;;8.30;99.90;;;9.10;77.59;98687.34;5233586;28;20352;-83
2021/05/30 01:51:37;;;;;;;6.50;6.00;;;8.30;99.90;;;9.12;78.35;98693.44;5229801;28;20221;-83
2021/05/30 01:54:15;;;;;;;6.17;5.73;;;8.20;99.90;;;9.14;78.06;98698.66;5221464;28;20232;-83
2021/05/30 01:56:56;;;;;;;6.13;5.70;;;8.30;99.90;;;9.13;76.62;98694.31;5223293;28;20190;-83
2021/05/30 01:59:32;;;;;;;5.97;5.57;;;8.20;99.90;;;8.92;76.41;98694.47;5222626;28;20201;-83
2021/05/30 02:02:06;;;;;;;5.93;5.53;;;8.00;99.90;;;8.82;77.48;98691.09;5229296;28;20221;-82
2021/05/30 02:04:44;;;;;;;6.77;6.27;;;7.80;99.90;;;8.82;78.49;98702.19;5223083;28;20196;-82
2021/05/30 02:07:17;;;;;;;6.90;6.27;;;7.90;99.90;;;8.76;78.94;98699.16;5217927;28;20200;-83
2021/05/30 02:09:51;;;;;;;6.73;6.23;;;8.00;99.90;;;8.68;78.58;98700.22;5231938;28;20225;-83
2021/05/30 02:12:24;;;;;;;6.60;6.07;;;7.90;99.90;;;8.63;78.15;98693.88;5220920;28;20241;-83
2021/05/30 02:14:57;;;;;;;7.37;5.90;;;7.70;99.90;;;8.60;78.64;98693.66;5230624;28;20257;-83
2021/05/30 02:17:31;;;;;;;6.33;5.73;;;7.70;99.90;;;8.56;78.54;98698.50;5218805;28;20190;-83
2021/05/30 02:20:06;;;;;;;6.83;5.90;;;7.70;99.90;;;8.63;79.20;98697.31;5225921;28;20205;-82
2021/05/30 02:22:39;;;;;;;6.83;6.23;;;7.80;99.90;;;8.64;80.30;98698.19;5222564;28;20692;-83
2021/05/30 02:25:13;;;;;;;6.70;6.20;;;7.90;99.90;;;8.61;80.39;98700.50;5214783;28;20202;-83
2021/05/30 02:27:46;;;;;;;6.20;5.70;;;7.90;99.90;;;8.60;79.71;98701.28;5217823;28;20620;-82
2021/05/30 02:30:21;;;;;;;6.30;5.80;;;7.80;99.90;;;8.56;78.90;98713.78;5217853;28;20593;-82
2021/05/30 02:32:54;;;;;;;6.20;5.67;;;7.70;99.90;;;8.52;78.69;98709.19;5216453;28;20680;-82
2021/05/30 02:35:27;;;;;;;5.97;5.57;;;7.70;99.90;;;8.38;78.56;98708.84;5219706;28;20202;-83
2021/05/30 02:37:59;;;;;;;5.70;5.30;;;7.60;99.90;;;8.41;77.92;98712.56;5227176;28;20225;-82
2021/05/30 02:40:33;;;;;;;5.83;5.33;;;7.50;99.90;;;8.41;78.45;98711.69;5221090;28;20217;-82
2021/05/30 02:43:06;;;;;;;6.43;6.03;;;7.50;99.90;;;8.39;78.44;98706.47;5214961;28;20245;-82
2021/05/30 02:45:39;;;;;;;5.90;5.50;;;7.50;99.90;;;8.42;79.00;98706.72;5223177;28;20604;-82
2021/05/30 02:48:12;;;;;;;6.97;6.47;;;7.60;99.90;;;8.43;78.85;98705.94;5222639;28;20681;-83
2021/05/30 02:50:57;;;;;;;7.30;6.60;;;7.60;99.90;;;8.48;80.07;98708.88;5209523;28;20300;-83
2021/05/30 02:53:32;;;;;;;6.47;5.97;;;7.70;99.90;;;8.44;80.83;98715.38;5223373;28;20240;-84
2021/05/30 02:56:06;;;;;;;7.43;6.73;;;7.70;99.90;;;8.51;79.82;98706.56;5208909;28;20288;-83
2021/05/30 02:58:39;;;;;;;6.20;5.70;;;7.80;99.90;;;8.45;79.86;98703.53;5218721;28;20216;-83
2021/05/30 03:01:12;;;;;;;6.27;5.80;;;7.70;99.90;;;8.36;79.40;98713.84;5220113;28;20276;-82
2021/05/30 03:03:46;;;;;;;6.60;6.00;;;7.60;99.90;;;8.38;79.36;98717.38;5224274;28;20217;-82
2021/05/30 03:06:23;;;;;;;6.40;5.90;;;7.50;99.90;;;8.42;78.49;98711.81;5209083;28;20425;-82
2021/05/30 03:08:58;;;;;;;6.53;6.03;;;7.50;99.90;;;8.35;78.74;98718.06;5210897;28;20214;-83
2021/05/30 03:11:32;;;;;;;6.00;5.50;;;7.40;99.90;;;8.32;79.04;98716.91;5215982;28;20237;-83
2021/05/30 03:14:05;;;;;;;6.80;6.30;;;7.50;99.90;;;8.31;79.45;98717.69;5222485;28;20194;-82
2021/05/30 03:16:38;;;;;;;6.67;6.17;;;7.50;99.90;;;8.31;80.04;98723.66;5220125;28;20239;-82
2021/05/30 03:19:11;;;;;;;7.07;6.53;;;7.50;99.90;;;8.37;80.46;98717.28;5209740;28;20237;-83
2021/05/30 03:21:44;;;;;;;7.20;6.60;;;7.50;99.90;;;8.35;80.14;98722.22;5211407;28;21985;-83
2021/05/30 03:24:17;;;;;;;7.17;6.50;;;7.60;99.90;;;8.35;79.65;98719.69;5213349;28;20248;-83
2021/05/30 03:26:51;;;;;;;6.93;6.43;;;7.50;99.90;;;8.37;80.14;98719.81;5231081;28;20197;-82
2021/05/30 03:29:25;;;;;;;7.03;6.53;;;7.60;99.90;;;8.36;80.50;98718.94;5222262;28;20212;-82
2021/05/30 03:31:57;;;;;;;6.90;6.40;;;7.60;99.90;;;8.36;80.40;98718.94;5213503;28;20312;-82
2021/05/30 03:34:30;;;;;;;6.50;5.93;;;7.70;99.90;;;8.23;79.07;98717.06;5215825;28;20202;-83
2021/05/30 03:37:04;;;;;;;6.73;6.13;;;7.50;99.90;;;8.23;79.33;98723.81;5213557;28;20204;-83
2021/05/30 03:39:41;;;;;;;7.10;6.60;;;7.40;99.90;;;8.25;78.84;98715.53;5212673;28;20217;-82
2021/05/30 03:42:22;;;;;;;7.57;6.97;;;7.40;99.90;;;8.18;79.30;98722.56;5218478;28;20716;-83
2021/05/30 03:44:57;;;;;;;7.17;6.67;;;7.40;99.90;;;8.13;79.97;98725.63;5216912;28;20276;-82
2021/05/30 03:47:30;;;;;;;7.57;6.60;;;7.40;99.90;;;8.15;79.48;98717.22;5219808;28;20649;-82
2021/05/30 03:50:03;;;;;;;7.00;6.50;;;7.30;99.90;;;8.22;79.50;98729.69;5230575;28;20304;-83
2021/05/30 03:52:36;;;;;;;6.67;6.17;;;7.40;99.90;;;8.17;79.70;98721.66;5223450;28;20213;-83
2021/05/30 03:55:10;;;;;;;6.73;6.13;;;7.40;99.90;;;8.17;79.76;98721.66;5214888;28;20281;-83
2021/05/30 03:57:44;;;;;;;6.23;5.73;;;7.40;99.90;;;8.23;78.91;98721.28;5216282;28;20197;-83
2021/05/30 04:00:20;;;;;;;6.70;6.20;;;7.40;99.90;;;8.25;78.92;98729.94;5227242;28;20243;-83
2021/05/30 04:02:53;;;;;;;6.57;6.17;;;7.40;99.90;;;8.31;78.87;98726.19;5213035;28;20221;-83
2021/05/30 04:05:28;;;;;;;6.43;5.93;;;7.40;99.90;;;8.30;79.09;98724.44;5214028;28;20193;-83
2021/05/30 04:08:01;;;;;;;6.63;6.13;;;7.40;99.90;;;8.31;79.22;98725.31;5232118;28;20243;-83
2021/05/30 04:10:35;;;;;;;6.47;5.97;;;7.50;99.90;;;8.37;78.78;98720.72;5217794;28;20639;-84
2021/05/30 04:13:09;;;;;;;6.33;5.83;;;7.50;99.90;;;8.38;78.56;98730.13;5214909;28;20289;-84
2021/05/30 04:15:42;;;;;;;6.83;6.23;;;7.50;99.90;;;8.35;78.59;98722.22;5223405;28;20221;-83
2021/05/30 04:18:15;;;;;;;7.10;6.50;;;7.50;99.90;;;8.35;78.33;98724.78;5215822;28;20719;-83
2021/05/30 04:20:48;;;;;;;6.90;6.40;;;7.50;99.90;;;8.39;78.01;98725.97;5223477;28;20730;-83
2021/05/30 04:23:21;;;;;;;6.70;6.20;;;7.50;99.90;;;8.31;78.63;98723.66;5226575;28;20200;-83
2021/05/30 04:25:54;;;;;;;6.80;6.30;;;7.50;99.90;;;8.43;78.25;98721.22;5218009;28;20338;-84
2021/05/30 04:28:28;;;;;;;6.60;6.10;;;7.50;99.90;;;8.43;77.99;98718.69;5213502;28;20217;-83
2021/05/30 04:31:01;;;;;;;6.20;5.80;;;7.60;99.90;;;8.43;77.80;98725.44;5214561;28;20225;-83
2021/05/30 04:33:34;;;;;;;6.73;6.23;;;7.60;99.90;;;8.51;78.37;98725.28;5227733;28;20251;-85
2021/05/30 04:36:08;;;;;;;6.60;6.07;;;7.70;99.90;;;8.66;77.97;98729.78;5212839;28;20281;-85
2021/05/30 04:38:42;;;;;;;7.03;6.53;;;7.70;99.90;;;8.64;77.89;98723.69;5212536;28;20190;-82
2021/05/30 04:41:15;;;;;;;8.00;7.40;;;7.70;99.90;;;8.80;76.81;98729.22;5225847;28;20271;-84
2021/05/30 04:43:49;;;;;;;7.13;6.63;;;7.90;99.90;;;8.91;77.10;98730.94;5214335;28;20217;-84
2021/05/30 04:46:22;;;;;;;8.10;7.40;;;7.90;99.90;;;9.07;76.40;98733.03;5217174;28;20194;-83
2021/05/30 04:48:55;;;;;;;7.50;6.90;;;8.10;99.90;;;9.17;76.04;98732.94;5218280;28;20213;-83
2021/05/30 04:51:28;;;;;;;7.60;7.00;;;8.20;99.90;;;9.39;75.55;98727.81;5223814;28;20267;-82
2021/05/30 04:54:01;;;;;;;7.27;6.77;;;8.30;99.90;;;9.58;75.25;98726.63;5219443;28;20197;-84
2021/05/30 04:56:34;;;;;;;7.93;7.20;;;8.60;99.90;;;10.28;73.20;98721.63;5219957;28;20198;-84
2021/05/30 04:59:08;;;;;;;7.20;6.70;;;9.30;99.90;;;11.18;70.23;98719.41;5222105;28;20200;-84
2021/05/30 05:01:41;;;;;;;7.03;6.43;;;10.10;99.90;;;11.98;66.48;98713.66;5224157;28;20680;-84
2021/05/30 05:04:14;;;;;;;6.80;6.27;;;10.70;99.90;;;12.61;64.59;98714.31;5212620;28;20260;-85
2021/05/30 05:06:47;;;;;;;7.03;6.40;;;11.30;99.90;;;13.13;62.08;98713.19;5212144;28;20612;-84
2021/05/30 05:09:19;;;;;;;7.30;6.70;;;11.60;99.90;;;13.39;59.98;98713.13;5214302;28;20200;-83
2021/05/30 05:11:52;;;;;;;7.32;6.63;;;11.80;99.90;;;14.05;58.53;98716.06;5218944;28;20306;-85
2021/05/30 05:14:26;;;;;;;6.50;6.00;;;12.20;99.90;;;14.41;57.75;98709.56;5213142;28;20248;-85
2021/05/30 05:16:58;;;;;;;5.95;5.50;;;12.60;99.90;;;14.82;55.72;98716.09;5224535;28;20620;-81
2021/05/30 05:19:31;;;;;;;6.25;5.68;;;12.90;99.90;;;15.24;55.19;98703.75;5228141;28;20197;-82
2021/05/30 05:22:04;;;;;;;6.10;5.60;;;13.20;99.90;;;15.47;54.95;98699.78;5218892;28;20221;-82
2021/05/30 05:24:57;;;;;;;5.70;5.25;;;13.50;99.90;;;16.04;52.79;98703.56;5223973;28;20197;-83
2021/05/30 05:27:29;;;;;;;5.75;5.32;;;13.90;99.90;;;16.24;51.39;98703.66;5218394;28;20206;-83
2021/05/30 05:30:04;;;;;;;6.15;5.55;;;13.90;99.90;;;16.32;51.26;98708.38;5211611;28;20583;-83
2021/05/30 05:32:37;;;;;;;5.60;5.10;;;14.00;99.90;;;16.47;50.67;98705.63;5221165;28;20213;-82
2021/05/30 05:35:10;;;;;;;5.55;5.15;;;14.40;99.90;;;16.96;49.81;98718.28;5222512;28;20204;-82
2021/05/30 05:37:43;;;;;;;5.95;5.50;;;14.60;99.90;;;17.15;49.46;98706.22;5224432;28;20198;-83
2021/05/30 05:40:17;;;;;;;5.50;5.10;;;14.80;99.90;;;17.52;48.88;98696.66;5216729;28;20217;-83
2021/05/30 05:42:51;;;;;;;5.97;5.40;;;15.00;99.90;;;17.48;48.29;98705.13;5211216;28;20218;-82
2021/05/30 05:45:25;;;;;;;6.15;5.65;;;15.00;99.90;;;17.86;47.71;98711.06;5210323;28;20194;-83
2021/05/30 05:47:59;;;;;;;5.97;5.47;;;15.30;99.80;;;17.66;47.36;98702.44;5215258;28;20212;-84
2021/05/30 05:50:31;;;;;;;5.88;5.38;;;15.20;98.90;;;17.73;47.54;98706.16;5213760;28;20220;-84
2021/05/30 05:53:04;;;;;;;6.22;5.72;;;15.20;99.40;;;17.95;47.51;98708.84;5230603;28;20304;-84
2021/05/30 05:55:38;;;;;;;5.90;5.45;;;15.30;99.00;;;17.61;48.42;98706.50;5224147;28;20197;-84
2021/05/30 05:58:11;;;;;;;5.30;4.90;;;15.20;99.70;;;18.27;47.72;98706.69;5221611;28;20234;-85
2021/05/30 06:00:45;;;;;;;5.88;5.43;;;15.60;99.60;;;18.74;46.05;98707.72;5213552;28;20232;-82
2021/05/30 06:03:18;;;;;;;5.63;5.22;;;16.00;98.60;;;18.92;45.07;98709.25;5223942;28;20193;-82
2021/05/30 06:05:50;;;;;;;5.82;5.22;;;16.20;97.90;;;18.92;46.18;98710.13;5211958;28;20202;-83
2021/05/30 06:08:23;;;;;;;5.63;5.20;;;16.00;98.40;;;19.67;44.06;98702.50;5213578;28;20277;-84
2021/05/30 06:10:56;;;;;;;5.88;5.40;;;16.30;98.00;;;19.88;43.66;98698.88;5214124;28;20706;-85
2021/05/30 06:13:28;;;;;;;6.18;5.57;;;16.60;97.30;;;20.17;42.59;98705.94;5214783;28;20193;-84
2021/05/30 06:16:05;;;;;;;5.85;5.35;;;17.20;96.10;;;20.41;42.01;98702.38;5208132;28;20198;-85
2021/05/30 06:18:38;;;;;;;5.50;5.10;;;17.30;95.90;;;20.52;41.52;98701.00;5213372;28;20206;-83
2021/05/30 06:21:11;;;;;;;5.65;5.22;;;17.40;95.30;;;20.87;41.66;98701.22;5220501;28;20217;-84
2021/05/30 06:23:43;;;;;;;5.60;5.20;;;17.80;95.40;;;21.04;40.66;98700.00;5213483;28;20629;-84
2021/05/30 06:26:17;;;;;;;5.50;5.10;;;17.90;94.80;;;21.35;40.20;98698.28;5211464;28;20288;-84
2021/05/30 06:28:49;;;;;;;5.53;5.00;;;18.10;94.40;;;21.35;40.16;98699.16;5218407;28;20198;-83
2021/05/30 06:31:24;;;;;;;5.55;5.15;;;18.20;94.30;;;21.81;39.08;98700.41;5221232;28;20229;-83
2021/05/30 06:33:56;;;;;;;5.80;5.30;;;18.60;93.40;;;22.14;38.09;98693.41;5215781;28;20292;-83
2021/05/30 06:36:29;;;;;;;5.57;5.18;;;19.10;92.50;;;22.10;38.46;98691.59;5216853;28;20248;-82
2021/05/30 06:39:02;;;;;;;5.20;4.80;;;19.30;92.40;;;22.75;37.29;98699.19;5210574;28;20194;-85
2021/05/30 06:41:35;;;;;;;5.40;4.90;;;19.50;91.80;;;23.05;36.27;98688.59;5215106;28;20629;-86
2021/05/30 06:44:08;;;;;;;5.38;4.97;;;19.80;91.50;;;23.35;35.95;98689.22;5212395;28;20196;-85
2021/05/30 06:46:42;;;;;;;5.10;4.70;;;20.40;90.40;;;23.52;36.36;98696.47;5208547;28;20190;-86
2021/05/30 06:49:15;;;;;;;5.43;4.93;;;20.70;90.30;;;24.04;35.42;98694.84;5226343;28;20623;-85
2021/05/30 06:51:48;;;;;;;5.47;5.03;;;20.90;90.00;;;24.00;35.89;98701.75;5224700;28;20217;-86
2021/05/30 06:54:21;;;;;;;5.10;4.80;;;20.70;90.40;;;24.01;35.39;98710.47;5218522;28;20707;-85
2021/05/30 06:56:54;;;;;;;5.05;4.65;;;20.80;89.30;;;23.71;34.88;98701.22;5207081;28;20189;-85
2021/05/30 06:59:28;;;;;;;4.93;4.47;;;21.00;87.10;;;24.17;34.36;98711.59;5219212;28;20207;-86
2021/05/30 07:02:02;;;;;;;4.63;4.22;;;21.40;86.60;;;24.65;33.07;98703.69;5219816;28;20649;-86
2021/05/30 07:04:35;;;;;;;4.80;4.40;;;22.00;83.70;;;24.59;32.06;98703.59;5207777;28;20573;-85
2021/05/30 07:07:07;;;;;;;5.10;4.60;;;21.90;81.40;;;24.51;33.05;98699.97;5216712;28;20205;-85
2021/05/30 07:09:40;;;;;;;5.03;4.05;;;22.10;81.80;;;24.38;32.98;98705.84;5214494;28;20193;-85
2021/05/30 07:12:13;;;;;;;4.95;4.50;;;22.10;81.40;;;24.14;31.89;98709.81;5213315;28;20703;-86
2021/05/30 07:14:45;;;;;;;4.93;4.53;;;22.00;79.90;;;24.25;32.61;98710.00;5216449;28;20212;-85
2021/05/30 07:17:18;;;;;;;4.70;4.30;;;21.90;80.30;;;24.18;33.15;98711.66;5210599;28;20200;-85
2021/05/30 07:19:53;;;;;;;4.97;4.57;;;22.00;80.90;;;24.00;32.94;98706.09;5206246;28;20623;-86
2021/05/30 07:22:26;;;;;;;4.60;4.30;;;22.00;79.30;;;23.65;33.56;98711.53;5213504;28;20564;-85
2021/05/30 07:24:58;;;;;;;4.80;4.40;;;21.60;80.20;;;24.08;33.57;98704.50;5209316;28;21222;-84
2021/05/30 07:27:31;;;;;;;4.70;4.40;;;21.80;80.70;;;23.95;32.43;98703.41;5210060;28;20205;-85
2021/05/30 07:30:06;;;;;;;5.55;5.05;;;21.90;78.70;;;23.28;33.61;98700.38;5211963;28;20202;-84
2021/05/30 07:32:40;;;;;;;4.63;4.30;;;21.50;78.90;;;23.43;33.77;98706.75;5219650;28;20221;-86
2021/05/30 07:35:13;;;;;;;4.72;4.43;;;21.50;79.20;;;23.89;32.89;98707.63;5214766;28;20201;-84
2021/05/30 07:37:46;;;;;;;4.68;4.28;;;21.90;79.00;;;24.11;32.68;98716.72;5217055;28;20224;-83
2021/05/30 07:40:19;;;;;;;5.40;4.90;;;22.30;77.90;;;23.55;33.98;98712.19;5224545;28;20284;-83
2021/05/30 07:42:52;;;;;;;5.80;4.93;;;22.00;78.80;;;23.92;32.58;98711.19;5223274;28;20219;-83
2021/05/30 07:45:25;;;;;;;5.03;4.70;;;21.80;78.50;;;24.37;32.76;98711.94;5212861;28;20202;-84
2021/05/30 07:47:59;;;;;;;5.85;5.35;;;21.90;79.80;;;24.25;33.41;98712.63;5209220;28;20293;-84
2021/05/30 07:50:32;;;;;;;5.47;5.07;;;21.80;80.80;;;24.90;32.08;98706.66;5213705;28;20220;-84
2021/05/30 07:53:05;;;;;;;4.72;4.32;;;22.30;78.80;;;25.51;32.12;98710.06;5207488;28;20225;-84
2021/05/30 07:55:37;;;;;;;5.45;5.05;;;22.70;80.00;;;25.34;30.26;98703.75;5214787;28;20280;-84
2021/05/30 07:58:10;;;;;;;4.80;4.40;;;22.90;75.30;;;25.24;30.76;98701.88;5217414;28;20212;-84
2021/05/30 08:00:43;;;;;;;5.05;4.70;;;22.60;76.60;;;25.09;30.87;98700.78;5209389;28;20649;-84
2021/05/30 08:03:17;;;;;;;5.22;4.75;;;22.50;76.20;;;25.46;30.18;98701.25;5214607;28;20199;-83
2021/05/30 08:05:49;;;;;;;5.72;5.22;;;22.60;75.80;;;24.92;31.61;98695.34;5216330;28;20664;-84
2021/05/30 08:08:22;;;;;;;4.05;3.75;;;22.40;78.00;;;25.85;30.19;98699.97;5222110;28;20212;-84
2021/05/30 08:10:55;;;;;;;4.70;4.22;;;22.90;75.70;;;25.90;29.19;98705.22;5207656;28;20726;-83
2021/05/30 08:13:28;;;;;;;4.32;4.03;;;23.30;73.80;;;25.74;28.84;98701.56;5215729;28;20190;-83
2021/05/30 08:16:00;;;;;;;4.80;4.32;;;23.10;72.40;;;25.21;29.63;98693.97;5217517;28;20204;-84
2021/05/30 08:18:34;;;;;;;3.58;3.38;;;23.00;72.50;;;24.90;30.43;98704.03;5212592;28;20197;-83
2021/05/30 08:21:06;;;;;;;4.30;3.90;;;23.10;73.20;;;24.57;30.51;98696.59;5208145;28;20217;-84
2021/05/30 08:23:41;;;;;;;4.72;4.32;;;22.70;71.90;;;24.24;31.46;98701.28;5220545;28;20202;-85
2021/05/30 08:26:13;;;;;;;5.18;3.50;;;22.60;73.70;;;24.21;29.83;98706.47;5222652;28;20223;-82
2021/05/30 08:28:46;;;;;;;4.25;3.72;;;22.90;70.50;;;24.05;30.60;98699.22;5214563;28;20633;-83
2021/05/30 08:31:19;;;;;;;3.55;3.25;;;22.80;71.40;;;23.87;29.12;98709.34;5209343;28;20613;-84
2021/05/30 08:33:53;;;;;;;4.18;3.72;;;22.50;67.60;;;23.62;29.09;98690.59;5218751;28;20576;-84
2021/05/30 08:36:27;;;;;;;3.83;3.38;;;22.40;67.80;;;23.47;29.48;98692.91;5217967;28;20709;-82
2021/05/30 08:39:00;;;;;;;3.92;3.63;;;22.40;67.20;;;23.08;29.58;98693.88;5210688;28;20229;-83
2021/05/30 08:41:32;;;;;;;4.30;3.75;;;22.30;66.60;;;22.95;30.40;98692.75;5219304;28;20521;-84
2021/05/30 08:44:06;;;;;;;3.80;3.47;;;22.10;68.50;;;22.85;30.94;98680.31;5209561;28;20210;-83
2021/05/30 08:46:39;;;;;;;3.28;3.03;;;22.00;69.00;;;22.17;32.21;98689.19;5219075;28;20237;-83
2021/05/30 08:49:13;;;;;;;3.80;3.50;;;21.50;69.30;;;22.58;32.48;98680.59;5212272;28;20228;-81
2021/05/30 08:51:45;;;;;;;3.40;3.10;;;21.70;71.20;;;22.64;30.09;98678.13;5214196;28;20225;-84
2021/05/30 08:54:20;;;;;;;4.20;3.85;;;21.90;67.00;;;22.39;31.18;98690.59;5219296;28;20206;-83
2021/05/30 08:56:52;;;;;;;4.00;3.70;;;21.60;68.70;;;22.00;33.22;98685.25;5210549;28;20817;-83
2021/05/30 08:59:30;;;;;;;4.57;3.88;;;21.30;71.80;;;21.73;32.15;98680.22;5209337;28;20198;-83
2021/05/30 09:02:09;;;;;;;4.25;3.10;;;20.80;70.50;;;21.81;32.66;98673.50;5218920;28;20216;-83
2021/05/30 09:04:52;;;;;;;3.53;3.22;;;20.90;71.70;;;22.00;31.21;98680.03;5218040;28;20285;-84
2021/05/30 09:07:42;;;;;;;3.60;3.40;;;21.00;69.40;;;22.11;30.43;98677.72;5215015;28;20554;-83
2021/05/30 09:10:18;;;;;;;3.53;3.22;;;21.30;68.50;;;22.12;31.58;98675.16;5208252;28;20658;-85
2021/05/30 09:13:14;;;;;;;3.55;3.33;;;21.50;69.50;;;22.46;30.77;98668.16;5223570;28;20210;-83
2021/05/30 09:15:55;;;;;;;3.50;3.30;;;21.50;67.90;;;22.15;29.46;98674.31;5215400;28;20388;-84
2021/05/30 09:18:32;;;;;;;3.50;3.20;;;21.40;65.30;;;21.87;30.02;98673.66;5217952;28;20712;-83
2021/05/30 09:21:09;;;;;;;3.95;3.55;;;21.10;66.40;;;21.71;30.42;98681.91;5212437;28;20227;-84
2021/05/30 09:23:45;;;;;;;3.90;3.40;;;20.70;67.00;;;21.57;31.13;98674.59;5222398;28;20657;-84
2021/05/30 09:26:20;;;;;;;3.70;3.40;;;20.60;68.40;;;21.41;31.30;98677.66;5218554;28;20216;-83
2021/05/30 09:29:06;;;;;;;4.35;3.95;;;20.30;68.90;;;21.21;31.94;98673.59;5207378;28;20189;-84
2021/05/30 09:31:55;;;;;;;4.20;3.90;;;20.20;69.50;;;21.67;33.32;98677.47;5215566;28;20657;-84
2021/05/30 09:34:30;;;;;;;4.05;3.65;;;20.80;71.00;;;21.74;32.09;98674.19;5209566;28;20194;-85
2021/05/30 09:37:05;;;;;;;4.28;3.97;;;20.90;70.00;;;21.57;32.19;98689.34;5211486;28;20196;-84
2021/05/30 09:39:40;;;;;;;3.70;3.40;;;20.80;69.80;;;21.51;30.84;98669.25;5209815;28;20198;-83
2021/05/30 09:42:25;;;;;;;4.35;4.05;;;20.70;67.70;;;21.00;33.68;98664.31;5215844;28;20305;-85
2021/05/30 09:44:59;;;;;;;4.13;3.75;;;20.30;71.60;;;21.18;32.46;98666.59;5218483;28;20207;-83
2021/05/30 09:47:33;;;;;;;3.83;3.53;;;20.30;70.60;;;21.19;33.43;98664.88;5220786;28;20335;-84
2021/05/30 09:50:09;;;;;;;3.60;3.33;;;20.50;71.20;;;21.51;32.37;98673.56;5221442;28;20593;-84
2021/05/30 09:52:44;;;;;;;4.05;3.83;;;20.80;70.00;;;21.32;32.70;98675.66;5216320;28;20227;-84
2021/05/30 09:55:20;;;;;;;4.07;3.78;;;20.40;70.60;;;21.03;33.91;98668.72;5218127;28;20201;-83
2021/05/30 09:58:13;;;;;;;4.10;3.80;;;20.10;72.20;;;20.47;34.50;98676.59;5220045;28;20200;-85
2021/05/30 10:00:59;;;;;;;4.05;3.70;;;19.60;73.30;;;20.27;35.47;98682.88;5207749;28;20667;-83
2021/05/30 10:03:33;;;;;;;3.97;3.67;;;19.40;75.40;;;20.44;35.95;98671.28;5215543;28;20355;-83
2021/05/30 10:06:06;;;;;;;3.97;3.67;;;19.60;75.70;;;20.86;35.26;98670.84;5224326;28;20193;-84
2021/05/30 10:08:40;;;;;;;4.10;3.80;;;20.10;74.30;;;21.09;35.01;98664.63;5214869;28;20197;-83
2021/05/30 10:11:15;;;;;;;5.10;4.60;;;20.40;73.80;;;20.90;33.71;98668.38;5222593;28;20231;-83
2021/05/30 10:13:47;;;;;;;6.30;5.70;;;20.40;71.30;;;21.04;33.89;98661.00;5209857;28;20198;-83
2021/05/30 10:16:20;;;;;;;5.38;4.50;;;20.30;71.50;;;20.89;33.91;98669.25;5224708;28;20220;-82
2021/05/30 10:18:54;;;;;;;4.00;3.70;;;20.30;71.90;;;20.87;33.30;98664.81;5212793;28;20583;-83
2021/05/30 10:21:26;;;;;;;4.68;4.28;;;20.20;70.30;;;20.90;33.20;98662.31;5215816;28;20221;-82
2021/05/30 10:24:00;;;;;;;6.13;5.63;;;20.40;70.20;;;20.77;31.82;98660.19;5225011;28;20205;-83
2021/05/30 10:26:34;;;;;;;6.47;5.88;;;20.20;67.60;;;20.76;33.20;98663.63;5223491;28;20213;-83
2021/05/30 10:29:12;;;;;;;3.47;3.28;;;20.10;70.20;;;20.98;30.27;98655.63;5214784;28;20205;-83
2021/05/30 10:31:47;;;;;;;3.80;3.50;;;20.40;65.10;;;21.05;29.40;98647.16;5210498;28;20217;-83
2021/05/30 10:34:23;;;;;;;3.97;3.67;;;20.60;64.00;;;20.89;30.25;98643.25;5224335;28;20197;-84
2021/05/30 10:37:25;;;;;;;3.78;3.50;;;20.30;65.30;;;21.28;29.79;98652.97;5210635;28;20190;-83
2021/05/30 10:40:01;;;;;;;4.15;3.75;;;20.90;65.00;;;21.07;31.40;98649.81;5209387;28;20202;-84
2021/05/30 10:42:34;;;;;;;5.25;4.28;;;20.60;66.60;;;20.90;30.42;98652.78;5219149;28;20259;-82
2021/05/30 10:45:15;;;;;;;3.28;3.08;;;20.40;64.30;;;20.94;29.53;98645.97;5209123;28;20212;-82
2021/05/30 10:48:19;;;;;;;3.72;3.15;;;20.30;64.10;;;21.38;29.47;98654.16;5215378;28;20202;-83
2021/05/30 10:51:17;;;;;;;3.78;3.47;;;20.90;63.80;;;21.56;30.16;98657.25;5207972;28;20206;-83
2021/05/30 10:53:52;;;;;;;3.60;3.30;;;21.00;65.10;;;21.66;29.55;98647.06;5219214;28;20239;-83
2021/05/30 10:56:34;;;;;;;3.40;3.20;;;20.90;64.10;;;21.80;28.07;98646.59;5210811;28;20585;-84